Time;durP1;ratioP1;P1;durP2;ratioP2;P2;SDS_P1;SDS_P2;PMS_P1;PMS_P2;Temp;Humidity;BMP_temperature;BMP_pressure;BME280_temperature;BME280_humidity;BME280_pressure;Samples;Min_cycle;Max_cycle;Signal;HPM_P1;HPM_P2
2021/03/03 00:01:23;;;;;;;22.65;8.07;;;5.80;99.90;;;;;;5041386;28;20063;-65
2021/03/03 00:03:49;;;;;;;24.35;7.97;;;5.70;99.90;;;;;;5040652;28;20040;-65
2021/03/03 00:06:15;;;;;;;26.15;9.00;;;5.70;99.90;;;;;;5037346;28;20029;-66
2021/03/03 00:08:40;;;;;;;23.20;9.88;;;5.70;99.90;;;;;;5039651;28;20032;-65
2021/03/03 00:11:06;;;;;;;23.10;9.32;;;5.70;99.90;;;;;;5040181;28;20505;-65
2021/03/03 00:13:32;;;;;;;27.90;9.95;;;5.80;99.90;;;;;;5022855;28;20033;-66
2021/03/03 00:15:57;;;;;;;28.67;9.68;;;5.80;99.90;;;;;;5038544;28;20566;-66
2021/03/03 00:18:23;;;;;;;21.23;8.93;;;5.70;99.90;;;;;;5041107;28;20033;-66
2021/03/03 00:20:48;;;;;;;24.88;9.45;;;5.70;99.90;;;;;;5039767;28;20071;-66
2021/03/03 00:23:14;;;;;;;21.02;8.23;;;5.70;99.90;;;;;;5040022;28;20056;-66
2021/03/03 00:25:39;;;;;;;20.58;9.27;;;5.70;99.90;;;;;;5039393;28;20034;-67
2021/03/03 00:28:05;;;;;;;30.08;9.68;;;5.70;99.90;;;;;;5035720;28;20127;-66
2021/03/03 00:30:31;;;;;;;32.30;8.50;;;5.60;99.90;;;;;;5039902;28;20034;-66
2021/03/03 00:32:56;;;;;;;25.00;8.88;;;5.60;99.90;;;;;;5038814;28;20025;-66
2021/03/03 00:35:22;;;;;;;26.05;9.10;;;5.60;99.90;;;;;;5038854;28;20495;-66
2021/03/03 00:37:48;;;;;;;22.98;8.45;;;5.60;99.90;;;;;;5038729;28;20429;-66
2021/03/03 00:40:14;;;;;;;20.17;8.30;;;5.60;99.90;;;;;;5039550;28;20160;-66
2021/03/03 00:42:39;;;;;;;19.30;8.45;;;5.60;99.90;;;;;;5039171;28;20032;-66
2021/03/03 00:45:06;;;;;;;25.13;9.80;;;5.60;99.90;;;;;;5036815;28;20028;-66
2021/03/03 00:47:32;;;;;;;21.33;8.95;;;5.50;99.90;;;;;;5035815;28;20051;-66
2021/03/03 00:49:57;;;;;;;21.73;9.20;;;5.50;99.90;;;;;;5038597;28;20025;-66
2021/03/03 00:52:23;;;;;;;33.65;10.90;;;5.50;99.90;;;;;;5033797;28;20453;-65
2021/03/03 00:54:48;;;;;;;27.05;9.88;;;5.50;99.90;;;;;;5019922;28;20040;-66
2021/03/03 00:57:14;;;;;;;20.35;8.52;;;5.50;99.90;;;;;;5036314;28;20053;-66
2021/03/03 00:59:39;;;;;;;27.95;9.23;;;5.50;99.90;;;;;;5039396;28;20120;-65
2021/03/03 01:02:05;;;;;;;19.60;8.55;;;5.50;99.90;;;;;;5021428;28;20045;-65
2021/03/03 01:04:31;;;;;;;25.10;9.55;;;5.50;99.90;;;;;;5035026;28;20465;-65
2021/03/03 01:06:56;;;;;;;25.90;9.27;;;5.40;99.90;;;;;;5020185;28;20042;-65
2021/03/03 01:09:23;;;;;;;22.60;9.27;;;5.40;99.90;;;;;;5039459;28;20029;-65
2021/03/03 01:11:49;;;;;;;23.77;8.88;;;5.40;99.90;;;;;;5038505;28;20063;-65
2021/03/03 01:14:15;;;;;;;24.65;8.63;;;5.40;99.90;;;;;;5036494;28;20411;-64
2021/03/03 01:16:41;;;;;;;19.45;8.10;;;5.30;99.90;;;;;;5039296;28;20041;-65
2021/03/03 01:19:07;;;;;;;21.52;9.90;;;5.30;99.90;;;;;;5036006;28;20441;-66
2021/03/03 01:21:32;;;;;;;18.70;8.85;;;5.30;99.90;;;;;;5039499;28;20087;-65
2021/03/03 01:23:58;;;;;;;23.80;9.57;;;5.30;99.90;;;;;;5036817;28;20045;-65
2021/03/03 01:26:24;;;;;;;25.45;9.38;;;5.20;99.90;;;;;;5037573;28;20040;-65
2021/03/03 01:28:49;;;;;;;20.95;9.15;;;5.20;99.90;;;;;;5020102;28;20036;-65
2021/03/03 01:31:15;;;;;;;19.60;9.10;;;5.20;99.90;;;;;;5036542;28;20029;-65
2021/03/03 01:33:40;;;;;;;22.38;9.50;;;5.20;99.90;;;;;;5039022;28;20099;-65
2021/03/03 01:36:07;;;;;;;25.67;9.70;;;5.10;99.90;;;;;;5036020;28;20041;-65
2021/03/03 01:38:32;;;;;;;21.20;8.40;;;5.10;99.90;;;;;;5020885;28;20120;-65
2021/03/03 01:40:59;;;;;;;24.38;9.95;;;5.10;99.90;;;;;;5036670;28;20112;-65
2021/03/03 01:43:24;;;;;;;20.48;9.07;;;5.10;99.90;;;;;;5037356;28;20041;-65
2021/03/03 01:45:50;;;;;;;23.40;9.18;;;5.10;99.90;;;;;;5037912;28;20071;-65
2021/03/03 01:48:16;;;;;;;21.95;8.98;;;5.00;99.90;;;;;;5035096;28;20025;-65
2021/03/03 01:50:42;;;;;;;28.52;9.07;;;5.00;99.90;;;;;;5036418;28;20034;-65
2021/03/03 01:53:08;;;;;;;24.70;10.38;;;5.00;99.90;;;;;;5039257;28;20510;-65
2021/03/03 01:55:34;;;;;;;23.85;9.77;;;5.00;99.90;;;;;;5031766;28;20044;-65
2021/03/03 01:58:01;;;;;;;27.20;9.55;;;5.00;99.90;;;;;;5041614;28;20029;-65
2021/03/03 02:00:27;;;;;;;23.23;9.15;;;4.90;99.90;;;;;;5042845;28;20037;-65
2021/03/03 02:02:52;;;;;;;26.15;9.20;;;4.90;99.90;;;;;;5040700;28;20578;-65
2021/03/03 02:05:18;;;;;;;23.05;9.90;;;4.90;99.90;;;;;;5031428;28;20035;-65
2021/03/03 02:08:17;;;;;;;20.35;8.43;;;4.90;99.90;;;;;;5037971;28;20053;-65
2021/03/03 02:11:12;;;;;;;28.25;8.73;;;4.90;99.90;;;;;;5039227;28;20035;-65
2021/03/03 02:13:44;;;;;;;24.80;10.43;;;4.80;99.90;;;;;;5000948;28;20049;-65
2021/03/03 02:16:12;;;;;;;25.92;9.50;;;4.80;99.90;;;;;;5040686;28;20518;-65
2021/03/03 02:18:39;;;;;;;27.48;10.75;;;4.80;99.90;;;;;;5041650;28;20045;-65
2021/03/03 02:21:05;;;;;;;22.10;9.20;;;4.80;99.90;;;;;;5022306;28;20496;-65
2021/03/03 02:23:52;;;;;;;25.63;10.50;;;4.80;99.90;;;;;;5042680;28;20162;-65
2021/03/03 02:26:21;;;;;;;24.00;9.43;;;4.70;99.90;;;;;;5040373;28;20029;-65
2021/03/03 02:28:48;;;;;;;25.70;9.45;;;4.70;99.90;;;;;;5040129;28;20037;-65
2021/03/03 02:31:14;;;;;;;25.63;9.63;;;4.70;99.90;;;;;;5041314;28;20474;-66
2021/03/03 02:33:42;;;;;;;23.45;9.48;;;4.60;99.90;;;;;;5040533;28;20053;-66
2021/03/03 02:36:10;;;;;;;22.08;9.48;;;4.60;99.90;;;;;;5040314;28;20036;-66
2021/03/03 02:38:39;;;;;;;27.05;9.27;;;4.60;99.90;;;;;;5041273;28;20033;-66
2021/03/03 02:41:05;;;;;;;22.33;9.43;;;4.60;99.90;;;;;;5043526;28;20025;-66
2021/03/03 02:43:31;;;;;;;28.88;10.13;;;4.60;99.90;;;;;;5039105;28;20083;-66
2021/03/03 02:45:57;;;;;;;24.25;9.18;;;4.60;99.90;;;;;;5042775;28;20074;-66
2021/03/03 02:48:23;;;;;;;29.27;10.30;;;4.50;99.90;;;;;;5021660;28;20091;-65
2021/03/03 02:50:48;;;;;;;23.55;9.32;;;4.50;99.90;;;;;;5041885;28;20037;-65
2021/03/03 02:53:14;;;;;;;28.30;10.73;;;4.50;99.90;;;;;;5023496;28;20040;-65
2021/03/03 02:55:40;;;;;;;23.35;9.45;;;4.50;99.90;;;;;;5040316;28;20489;-66
2021/03/03 02:58:05;;;;;;;21.45;9.23;;;4.40;99.90;;;;;;5042382;28;20029;-65
2021/03/03 03:00:41;;;;;;;25.77;9.63;;;4.40;99.90;;;;;;5039851;28;20513;-66
2021/03/03 03:03:19;;;;;;;24.13;10.23;;;4.40;99.90;;;;;;5031269;28;20087;-66
2021/03/03 03:05:48;;;;;;;26.75;9.52;;;4.40;99.90;;;;;;5050201;28;20048;-67
2021/03/03 03:08:18;;;;;;;27.15;9.40;;;4.40;99.90;;;;;;5030487;28;20451;-66
2021/03/03 03:10:45;;;;;;;22.10;9.32;;;4.30;99.90;;;;;;5043431;28;20030;-66
2021/03/03 03:13:14;;;;;;;27.90;9.48;;;4.30;99.90;;;;;;5040712;28;20040;-66
2021/03/03 03:15:43;;;;;;;29.17;9.95;;;4.30;99.90;;;;;;5039880;28;20038;-66
2021/03/03 03:18:15;;;;;;;30.70;11.45;;;4.30;99.90;;;;;;5040679;28;20025;-66
2021/03/03 03:20:42;;;;;;;36.55;9.90;;;4.30;99.90;;;;;;5048647;28;20037;-66
2021/03/03 03:23:10;;;;;;;25.23;10.00;;;4.30;99.90;;;;;;5038219;28;20033;-66
2021/03/03 03:25:38;;;;;;;28.98;11.02;;;4.20;99.90;;;;;;5049792;28;20033;-66
2021/03/03 03:28:04;;;;;;;26.35;10.18;;;4.20;99.90;;;;;;5042309;28;20084;-66
2021/03/03 03:30:30;;;;;;;23.83;10.43;;;4.30;99.90;;;;;;5041782;28;20041;-66
2021/03/03 03:32:58;;;;;;;25.02;10.10;;;4.30;99.90;;;;;;5038025;28;20155;-66
2021/03/03 03:35:25;;;;;;;29.02;11.00;;;4.30;99.90;;;;;;5034272;28;20025;-66
2021/03/03 03:37:51;;;;;;;26.63;10.32;;;4.30;99.90;;;;;;5040956;28;20128;-66
2021/03/03 03:40:20;;;;;;;23.17;9.60;;;4.30;99.90;;;;;;5038903;28;20180;-66
2021/03/03 03:42:46;;;;;;;27.60;9.57;;;4.30;99.90;;;;;;5040140;28;20120;-66
2021/03/03 03:45:14;;;;;;;22.75;9.40;;;4.30;99.90;;;;;;5039380;28;20033;-65
2021/03/03 03:47:41;;;;;;;32.85;11.40;;;4.20;99.90;;;;;;5039658;28;20037;-65
2021/03/03 03:50:07;;;;;;;24.08;9.52;;;4.20;99.90;;;;;;5039368;28;20047;-65
2021/03/03 03:52:34;;;;;;;25.30;9.93;;;4.20;99.90;;;;;;5038647;28;20036;-66
2021/03/03 03:55:00;;;;;;;28.40;11.73;;;4.10;99.90;;;;;;5022324;28;20025;-66
2021/03/03 03:57:26;;;;;;;31.45;11.23;;;4.10;99.90;;;;;;5037713;28;20026;-66
2021/03/03 03:59:52;;;;;;;22.38;10.07;;;4.10;99.90;;;;;;5040928;28;20029;-65
2021/03/03 04:02:18;;;;;;;28.00;11.05;;;4.10;99.90;;;;;;5038210;28;20037;-65
2021/03/03 04:04:44;;;;;;;28.10;9.27;;;4.00;99.90;;;;;;5022496;28;20116;-65
2021/03/03 04:07:09;;;;;;;28.40;10.20;;;4.00;99.90;;;;;;5038268;28;20064;-65
2021/03/03 04:09:35;;;;;;;21.00;9.07;;;4.00;99.90;;;;;;5038847;28;20692;-66
2021/03/03 04:12:01;;;;;;;31.08;10.73;;;4.00;99.90;;;;;;5039868;28;20045;-66
2021/03/03 04:14:27;;;;;;;24.27;11.18;;;4.00;99.90;;;;;;5037842;28;20038;-65
2021/03/03 04:16:53;;;;;;;28.05;10.32;;;4.00;99.90;;;;;;5040428;28;20021;-65
2021/03/03 04:19:19;;;;;;;27.92;10.13;;;4.00;99.90;;;;;;5037306;28;20523;-65
2021/03/03 04:21:45;;;;;;;25.77;9.55;;;4.00;99.90;;;;;;5040121;28;20060;-65
2021/03/03 04:24:11;;;;;;;27.42;9.38;;;4.00;99.90;;;;;;5037763;28;20115;-65
2021/03/03 04:26:36;;;;;;;24.58;9.68;;;4.00;99.90;;;;;;5038709;28;20117;-66
2021/03/03 04:29:02;;;;;;;29.20;10.48;;;4.00;99.90;;;;;;5038782;28;20021;-66
2021/03/03 04:31:28;;;;;;;22.35;8.70;;;4.00;99.90;;;;;;5037774;28;20048;-65
2021/03/03 04:33:53;;;;;;;31.48;10.75;;;3.90;99.90;;;;;;5040131;28;20112;-66
2021/03/03 04:36:19;;;;;;;29.13;10.38;;;3.90;99.90;;;;;;5037002;28;20402;-65
2021/03/03 04:38:45;;;;;;;24.58;9.50;;;4.00;99.90;;;;;;5040012;28;20367;-65
2021/03/03 04:41:10;;;;;;;26.40;10.10;;;4.00;99.90;;;;;;5037390;28;20437;-66
2021/03/03 04:43:36;;;;;;;27.75;10.38;;;3.90;99.90;;;;;;5038841;28;20049;-65
2021/03/03 04:46:02;;;;;;;27.33;9.93;;;3.90;99.90;;;;;;5038431;28;20037;-66
2021/03/03 04:48:27;;;;;;;22.38;9.70;;;3.90;99.90;;;;;;5037285;28;20034;-66
2021/03/03 04:50:53;;;;;;;27.08;10.88;;;3.90;99.90;;;;;;5040070;28;20674;-65
2021/03/03 04:53:19;;;;;;;29.65;10.98;;;3.90;99.90;;;;;;5036373;28;20041;-65
2021/03/03 04:55:45;;;;;;;31.92;11.80;;;3.90;99.90;;;;;;5021970;28;20160;-66
2021/03/03 04:58:10;;;;;;;29.02;10.77;;;4.00;99.90;;;;;;5037061;28;20120;-66
2021/03/03 05:00:36;;;;;;;23.60;9.43;;;4.00;99.90;;;;;;5038514;28;20045;-66
2021/03/03 05:03:02;;;;;;;27.70;10.25;;;4.00;99.90;;;;;;5037998;28;20037;-66
2021/03/03 05:05:29;;;;;;;24.20;9.77;;;4.10;99.90;;;;;;5037279;28;20040;-65
2021/03/03 05:07:54;;;;;;;24.73;10.48;;;4.10;99.90;;;;;;5039251;28;20041;-65
2021/03/03 05:10:20;;;;;;;20.75;9.27;;;4.10;99.90;;;;;;5018271;28;20045;-66
2021/03/03 05:12:46;;;;;;;25.73;9.23;;;4.10;99.90;;;;;;5022129;28;20115;-66
2021/03/03 05:15:12;;;;;;;24.45;10.55;;;4.10;99.90;;;;;;5036820;28;20479;-65
2021/03/03 05:17:37;;;;;;;28.95;10.85;;;4.10;99.90;;;;;;5038728;28;20119;-66
2021/03/03 05:20:05;;;;;;;30.67;10.95;;;4.10;99.90;;;;;;5019753;28;20048;-66
2021/03/03 05:22:30;;;;;;;27.80;11.10;;;4.10;99.90;;;;;;5037663;28;20041;-66
2021/03/03 05:24:56;;;;;;;27.00;9.95;;;4.10;99.90;;;;;;5038679;28;20428;-66
2021/03/03 05:27:21;;;;;;;26.65;10.30;;;4.00;99.90;;;;;;5035660;28;20029;-65
2021/03/03 05:29:47;;;;;;;29.55;10.95;;;4.00;99.90;;;;;;5039535;28;20732;-66
2021/03/03 05:32:12;;;;;;;20.98;9.57;;;4.00;99.90;;;;;;5029494;28;20033;-65
2021/03/03 05:34:38;;;;;;;28.45;11.00;;;4.00;99.90;;;;;;5013971;28;20053;-66
2021/03/03 05:37:04;;;;;;;29.55;11.60;;;3.90;99.90;;;;;;5031699;28;20026;-65
2021/03/03 05:39:29;;;;;;;23.90;10.73;;;3.90;99.90;;;;;;5031836;28;20060;-65
2021/03/03 05:42:00;;;;;;;29.75;10.32;;;4.00;99.90;;;;;;5032553;28;20105;-65
2021/03/03 05:44:26;;;;;;;23.88;9.80;;;3.90;99.90;;;;;;5033831;28;20037;-65
2021/03/03 05:46:56;;;;;;;32.58;10.10;;;3.90;99.90;;;;;;5032750;28;20034;-66
2021/03/03 05:49:26;;;;;;;27.90;11.82;;;3.90;99.90;;;;;;5032626;28;20033;-66
2021/03/03 05:51:54;;;;;;;23.52;10.23;;;3.80;99.90;;;;;;5030684;28;20022;-66
2021/03/03 05:54:21;;;;;;;29.60;10.55;;;3.80;99.90;;;;;;5035746;28;20021;-65
2021/03/03 05:56:47;;;;;;;22.63;9.55;;;3.80;99.90;;;;;;5024778;28;20029;-65
2021/03/03 05:59:15;;;;;;;32.60;10.25;;;3.80;99.90;;;;;;5014487;28;20036;-66
2021/03/03 06:01:43;;;;;;;22.52;9.70;;;3.80;99.90;;;;;;5039197;28;20136;-65
2021/03/03 06:04:10;;;;;;;26.25;10.70;;;3.80;99.90;;;;;;5035319;28;20340;-65
2021/03/03 06:06:40;;;;;;;30.80;10.05;;;3.80;99.90;;;;;;5038365;28;20033;-65
2021/03/03 06:09:06;;;;;;;25.08;9.45;;;3.80;99.90;;;;;;5019949;28;20030;-66
2021/03/03 06:11:31;;;;;;;30.67;10.10;;;3.80;99.90;;;;;;5034200;28;20092;-65
2021/03/03 06:14:00;;;;;;;20.63;9.55;;;3.80;99.90;;;;;;5038216;28;20033;-65
2021/03/03 06:16:26;;;;;;;25.75;10.40;;;3.80;99.90;;;;;;5034028;28;20044;-66
2021/03/03 06:18:54;;;;;;;22.30;11.10;;;3.90;99.90;;;;;;5038004;28;20021;-65
2021/03/03 06:21:28;;;;;;;24.63;10.25;;;3.90;99.90;;;;;;5034001;28;20540;-65
2021/03/03 06:24:05;;;;;;;29.27;10.82;;;3.90;99.90;;;;;;5020225;28;20033;-65
2021/03/03 06:26:32;;;;;;;25.75;9.93;;;4.00;99.90;;;;;;5033766;28;20069;-65
2021/03/03 06:28:58;;;;;;;25.60;9.35;;;4.00;99.90;;;;;;5038094;28;20057;-66
2021/03/03 06:31:34;;;;;;;20.48;9.30;;;4.00;99.90;;;;;;5034221;28;20038;-68
2021/03/03 06:34:21;;;;;;;26.77;10.80;;;4.00;99.90;;;;;;5038887;28;20026;-66
2021/03/03 06:36:56;;;;;;;25.30;10.30;;;4.00;99.90;;;;;;5014469;28;20099;-66
2021/03/03 06:40:07;;;;;;;26.23;10.20;;;4.10;99.90;;;;;;5034781;28;20044;-65
2021/03/03 06:42:33;;;;;;;30.48;11.60;;;4.10;99.90;;;;;;5032360;28;20033;-66
2021/03/03 06:44:58;;;;;;;31.02;11.43;;;4.10;99.90;;;;;;5041814;28;20132;-65
2021/03/03 06:47:24;;;;;;;27.42;10.43;;;4.20;99.90;;;;;;5017767;28;20041;-65
2021/03/03 06:49:52;;;;;;;25.75;10.13;;;4.30;99.90;;;;;;5042083;28;20044;-66
2021/03/03 06:52:37;;;;;;;24.83;10.45;;;4.30;99.90;;;;;;5049707;28;20033;-67
2021/03/03 06:55:03;;;;;;;28.15;12.00;;;4.40;99.90;;;;;;5052941;28;20096;-66
2021/03/03 06:57:28;;;;;;;23.67;10.10;;;4.40;99.90;;;;;;5048542;28;20052;-68
2021/03/03 06:59:56;;;;;;;26.92;10.57;;;4.50;99.90;;;;;;5026445;28;20037;-66
2021/03/03 07:02:29;;;;;;;29.17;10.88;;;4.50;99.90;;;;;;5042685;28;20064;-65
2021/03/03 07:04:57;;;;;;;28.02;11.13;;;4.60;99.90;;;;;;5041185;28;20470;-66
2021/03/03 07:07:22;;;;;;;25.63;10.80;;;4.70;99.90;;;;;;5039698;28;20052;-66
2021/03/03 07:09:51;;;;;;;29.08;11.40;;;4.70;99.90;;;;;;5044414;28;20033;-69
2021/03/03 07:12:21;;;;;;;23.83;10.77;;;4.70;99.90;;;;;;5035611;28;20516;-66
2021/03/03 07:15:09;;;;;;;42.58;11.73;;;4.80;99.90;;;;;;5055805;28;20029;-66
2021/03/03 07:17:41;;;;;;;23.58;10.93;;;4.90;99.90;;;;;;5041797;28;20080;-66
2021/03/03 07:20:14;;;;;;;30.65;11.57;;;5.00;99.90;;;;;;5043430;28;20029;-65
2021/03/03 07:22:42;;;;;;;27.05;11.50;;;5.10;99.90;;;;;;5041317;28;20045;-66
2021/03/03 07:25:10;;;;;;;27.88;11.23;;;5.20;99.90;;;;;;5038325;28;20044;-66
2021/03/03 07:27:37;;;;;;;27.85;10.95;;;5.30;99.90;;;;;;5039611;28;20510;-66
2021/03/03 07:30:07;;;;;;;25.40;10.68;;;5.40;99.90;;;;;;5040891;28;20061;-66
2021/03/03 07:32:33;;;;;;;21.45;9.25;;;5.40;99.90;;;;;;5041121;28;20111;-66
2021/03/03 07:34:59;;;;;;;17.45;8.23;;;5.40;99.90;;;;;;5038079;28;20053;-66
2021/03/03 07:37:36;;;;;;;17.52;7.85;;;5.40;99.90;;;;;;5020695;28;20557;-65
2021/03/03 07:40:09;;;;;;;15.55;7.45;;;5.40;99.90;;;;;;5041298;28;20044;-66
2021/03/03 07:42:36;;;;;;;13.95;7.28;;;5.40;99.90;;;;;;5041419;28;20045;-66
2021/03/03 07:45:10;;;;;;;13.93;6.68;;;5.40;99.90;;;;;;5039482;28;20033;-66
2021/03/03 07:47:38;;;;;;;14.45;7.45;;;5.30;99.90;;;;;;5039792;28;20038;-66
2021/03/03 07:50:09;;;;;;;15.32;8.25;;;5.30;99.90;;;;;;5038411;28;20040;-65
2021/03/03 07:52:38;;;;;;;11.43;6.32;;;5.20;99.90;;;;;;5041075;28;20037;-65
2021/03/03 07:55:05;;;;;;;11.55;5.82;;;5.30;99.90;;;;;;5036608;28;20037;-64
2021/03/03 07:57:33;;;;;;;9.93;5.80;;;5.20;99.90;;;;;;5038974;28;20052;-65
2021/03/03 08:00:05;;;;;;;10.93;5.35;;;5.10;99.90;;;;;;5039280;28;20053;-65
2021/03/03 08:02:45;;;;;;;14.25;5.32;;;5.10;99.90;;;;;;5044696;28;20095;-65
2021/03/03 08:05:36;;;;;;;10.70;5.60;;;5.20;99.90;;;;;;5041179;28;20034;-64
2021/03/03 08:08:13;;;;;;;11.38;6.05;;;5.30;99.90;;;;;;5027539;28;20319;-65
2021/03/03 08:10:40;;;;;;;8.93;5.25;;;5.30;99.90;;;;;;5038678;28;20041;-64
2021/03/03 08:13:17;;;;;;;9.95;4.90;;;5.30;99.90;;;;;;5037981;28;20056;-64
2021/03/03 08:15:57;;;;;;;9.68;4.68;;;5.30;99.90;;;;;;5039302;28;20045;-65
2021/03/03 08:18:27;;;;;;;10.45;5.50;;;5.30;99.90;;;;;;5037369;28;20069;-65
2021/03/03 08:20:55;;;;;;;8.75;4.68;;;5.30;99.90;;;;;;5038191;28;20071;-65
2021/03/03 08:23:33;;;;;;;10.63;5.75;;;5.30;99.90;;;;;;5039789;28;20037;-65
2021/03/03 08:26:03;;;;;;;11.98;5.05;;;5.20;99.90;;;;;;5037246;28;20052;-65
2021/03/03 08:28:45;;;;;;;11.27;5.47;;;5.20;99.90;;;;;;5027984;28;20049;-65
2021/03/03 08:31:20;;;;;;;9.77;5.10;;;5.10;99.90;;;;;;5039946;28;20120;-65
2021/03/03 08:33:49;;;;;;;12.45;5.93;;;5.10;99.90;;;;;;5038392;28;20555;-65
2021/03/03 08:36:17;;;;;;;12.38;5.03;;;5.10;99.90;;;;;;5038793;28;20025;-65
2021/03/03 08:38:47;;;;;;;11.38;5.05;;;5.10;99.90;;;;;;5040650;28;20040;-65
2021/03/03 08:41:15;;;;;;;15.52;6.18;;;5.10;99.90;;;;;;5019508;28;20029;-65
2021/03/03 08:43:49;;;;;;;8.57;4.78;;;5.20;99.90;;;;;;5019758;28;20042;-65
2021/03/03 08:46:20;;;;;;;9.10;5.07;;;5.30;99.90;;;;;;5018553;28;20080;-68
2021/03/03 08:48:52;;;;;;;11.02;5.18;;;5.40;99.90;;;;;;5017777;28;20053;-65
2021/03/03 08:51:20;;;;;;;15.70;5.18;;;5.40;99.90;;;;;;5012160;28;20536;-64
2021/03/03 08:53:54;;;;;;;15.45;5.10;;;5.50;99.90;;;;;;5019170;28;20030;-64
2021/03/03 08:56:39;;;;;;;9.82;4.90;;;5.50;99.90;;;;;;5018385;28;20030;-64
2021/03/03 08:59:37;;;;;;;9.10;5.10;;;5.50;99.90;;;;;;5018487;28;20536;-64
2021/03/03 09:02:21;;;;;;;14.18;5.53;;;5.50;99.90;;;;;;5021014;28;20042;-64
2021/03/03 09:04:49;;;;;;;9.25;4.97;;;5.50;99.90;;;;;;5016656;28;20044;-66
2021/03/03 09:07:25;;;;;;;9.13;4.80;;;5.60;99.90;;;;;;5017476;28;20091;-66
2021/03/03 09:09:53;;;;;;;10.52;5.45;;;5.60;99.90;;;;;;5019178;28;20755;-66
2021/03/03 09:12:29;;;;;;;14.43;5.28;;;5.60;99.90;;;;;;5018834;28;20200;-66
2021/03/03 09:14:57;;;;;;;12.30;5.50;;;5.60;99.90;;;;;;5017845;28;20041;-66
2021/03/03 09:17:25;;;;;;;10.07;5.50;;;5.50;99.90;;;;;;5019308;28;20041;-66
2021/03/03 09:19:52;;;;;;;11.95;5.78;;;5.40;99.90;;;;;;5020098;28;20045;-66
2021/03/03 09:22:23;;;;;;;21.42;6.00;;;5.50;99.90;;;;;;5020821;28;20041;-66
2021/03/03 09:24:49;;;;;;;;;;;5.60;99.90;;;;;;5018166;28;20049;-66
2021/03/03 09:27:15;;;;;;;14.75;5.80;;;5.70;99.90;;;;;;5019560;28;19921;-66
2021/03/03 09:29:42;;;;;;;12.43;6.53;;;5.70;99.90;;;;;;5019559;28;20037;-66
2021/03/03 09:32:10;;;;;;;15.98;6.40;;;5.70;99.90;;;;;;5019410;28;20080;-65
2021/03/03 09:34:43;;;;;;;15.32;6.72;;;5.70;99.90;;;;;;5021190;28;20033;-65
2021/03/03 09:37:09;;;;;;;14.43;6.60;;;5.70;99.90;;;;;;5022403;28;20056;-65
2021/03/03 09:39:35;;;;;;;14.32;6.88;;;5.70;99.90;;;;;;5023513;28;20486;-65
2021/03/03 09:42:04;;;;;;;12.35;6.65;;;5.70;99.90;;;;;;5019589;28;20034;-68
2021/03/03 09:44:44;;;;;;;15.52;7.50;;;5.80;99.90;;;;;;5022936;28;20046;-65
2021/03/03 09:47:10;;;;;;;13.23;6.82;;;6.00;99.90;;;;;;5019548;28;20717;-65
2021/03/03 09:49:37;;;;;;;13.27;6.93;;;6.10;99.90;;;;;;5024023;28;20038;-65
2021/03/03 09:52:03;;;;;;;15.88;7.45;;;6.10;99.90;;;;;;5018538;28;20514;-65
2021/03/03 09:54:38;;;;;;;15.32;7.60;;;6.20;99.90;;;;;;5014350;28;20047;-64
2021/03/03 09:57:09;;;;;;;18.67;8.18;;;6.30;99.90;;;;;;5013353;28;20679;-64
2021/03/03 09:59:38;;;;;;;17.67;8.35;;;6.30;99.90;;;;;;5016525;28;20029;-64
2021/03/03 10:02:05;;;;;;;19.67;8.75;;;6.30;99.90;;;;;;5016269;28;20029;-66
2021/03/03 10:04:31;;;;;;;17.83;9.48;;;6.30;99.90;;;;;;5018073;28;20057;-65
2021/03/03 10:06:58;;;;;;;22.80;9.57;;;6.50;99.90;;;;;;5016661;28;20545;-65
2021/03/03 10:09:25;;;;;;;20.10;10.23;;;6.70;99.90;;;;;;5019101;28;20033;-65
2021/03/03 10:11:50;;;;;;;18.92;9.15;;;6.80;99.90;;;;;;5019568;28;20060;-66
2021/03/03 10:14:16;;;;;;;20.85;9.70;;;7.00;99.90;;;;;;5019615;28;20033;-66
2021/03/03 10:16:56;;;;;;;19.08;9.35;;;7.10;99.90;;;;;;5015553;28;20033;-66
2021/03/03 10:19:22;;;;;;;18.63;9.90;;;7.20;99.90;;;;;;5022661;28;20026;-66
2021/03/03 10:21:48;;;;;;;18.20;8.98;;;7.20;99.90;;;;;;5022295;28;20048;-66
2021/03/03 10:24:18;;;;;;;22.13;9.27;;;7.30;99.90;;;;;;5022942;28;20427;-64
2021/03/03 10:26:46;;;;;;;20.23;9.80;;;7.30;99.90;;;;;;5021772;28;20065;-65
2021/03/03 10:29:29;;;;;;;21.05;10.18;;;7.40;99.90;;;;;;5017890;28;20058;-65
2021/03/03 10:32:09;;;;;;;22.25;10.70;;;7.50;99.90;;;;;;5024287;28;20360;-66
2021/03/03 10:34:34;;;;;;;23.30;10.18;;;7.50;99.90;;;;;;5011113;28;20080;-65
2021/03/03 10:37:00;;;;;;;22.95;11.43;;;7.60;99.90;;;;;;5013159;28;20446;-66
2021/03/03 10:39:29;;;;;;;20.08;10.02;;;7.50;99.90;;;;;;5011451;28;20568;-65
2021/03/03 10:42:03;;;;;;;28.10;11.43;;;7.60;99.90;;;;;;5017223;28;20033;-66
2021/03/03 10:44:42;;;;;;;22.50;10.52;;;7.60;99.90;;;;;;5015926;28;20034;-65
2021/03/03 10:47:09;;;;;;;23.27;12.00;;;7.60;99.90;;;;;;5019110;28;20521;-64
2021/03/03 10:49:38;;;;;;;27.27;12.73;;;7.60;99.90;;;;;;5014308;28;20088;-65
2021/03/03 10:52:20;;;;;;;23.98;12.02;;;7.60;99.90;;;;;;5013570;28;20022;-64
2021/03/03 10:54:46;;;;;;;25.30;11.63;;;7.60;99.90;;;;;;5012810;28;20058;-66
2021/03/03 10:57:12;;;;;;;29.75;13.73;;;7.60;99.90;;;;;;5013227;28;20057;-65
2021/03/03 10:59:38;;;;;;;27.38;12.68;;;7.60;99.90;;;;;;5012156;28;20111;-66
2021/03/03 11:02:05;;;;;;;25.40;12.65;;;7.70;99.90;;;;;;5009079;28;20045;-65
2021/03/03 11:04:41;;;;;;;29.80;12.57;;;7.90;99.90;;;;;;5010871;28;20132;-65
2021/03/03 11:07:09;;;;;;;26.73;13.18;;;7.90;99.90;;;;;;5023135;28;20042;-69
2021/03/03 11:09:35;;;;;;;28.50;13.63;;;7.90;99.90;;;;;;5018227;28;20053;-66
2021/03/03 11:12:02;;;;;;;27.48;13.63;;;7.80;99.90;;;;;;5018615;28;20034;-64
2021/03/03 11:14:28;;;;;;;30.23;13.48;;;7.90;99.90;;;;;;5017633;28;20042;-65
2021/03/03 11:16:58;;;;;;;28.65;13.07;;;8.00;99.90;;;;;;5015923;28;20033;-65
2021/03/03 11:19:25;;;;;;;30.00;13.35;;;8.30;99.90;;;;;;5016261;28;20026;-65
2021/03/03 11:21:52;;;;;;;30.50;13.55;;;8.50;99.90;;;;;;5009557;28;20100;-64
2021/03/03 11:24:21;;;;;;;24.65;12.60;;;8.70;99.90;;;;;;5010035;28;20033;-65
2021/03/03 11:26:47;;;;;;;29.58;13.52;;;8.70;99.90;;;;;;5012369;28;20114;-65
2021/03/03 11:29:13;;;;;;;32.00;13.77;;;8.70;99.90;;;;;;5013039;28;20433;-65
2021/03/03 11:31:40;;;;;;;35.78;14.50;;;8.60;99.90;;;;;;5009767;28;20034;-65
2021/03/03 11:34:06;;;;;;;29.65;13.20;;;8.50;99.90;;;;;;5012580;28;20042;-66
2021/03/03 11:36:32;;;;;;;30.30;13.43;;;8.50;99.90;;;;;;5010219;28;20395;-66
2021/03/03 11:38:57;;;;;;;29.80;15.02;;;8.40;99.90;;;;;;5005283;28;20120;-66
2021/03/03 11:41:23;;;;;;;30.08;13.80;;;8.40;99.90;;;;;;5010352;28;20096;-64
2021/03/03 11:43:49;;;;;;;30.00;13.15;;;8.40;99.90;;;;;;5006727;28;20486;-64
2021/03/03 11:46:15;;;;;;;30.35;13.95;;;8.60;99.90;;;;;;5010680;28;20293;-65
2021/03/03 11:48:41;;;;;;;27.52;13.50;;;8.80;99.90;;;;;;5009637;28;20398;-64
2021/03/03 11:51:06;;;;;;;28.65;13.52;;;9.00;99.90;;;;;;5007430;28;20125;-66
2021/03/03 11:53:32;;;;;;;32.03;15.27;;;9.20;99.90;;;;;;5009882;28;20545;-65
2021/03/03 11:55:58;;;;;;;28.13;13.38;;;9.30;99.90;;;;;;5007232;28;20141;-66
2021/03/03 11:58:23;;;;;;;34.58;14.52;;;9.30;99.90;;;;;;5008080;28;20041;-65
2021/03/03 12:00:49;;;;;;;30.13;14.15;;;9.30;99.90;;;;;;5009392;28;20598;-66
2021/03/03 12:03:14;;;;;;;28.98;14.23;;;9.40;99.90;;;;;;5009149;28;20104;-65
2021/03/03 12:05:40;;;;;;;33.40;15.82;;;9.30;99.90;;;;;;5008363;28;20034;-68
2021/03/03 12:08:07;;;;;;;33.22;14.82;;;9.30;99.90;;;;;;5011097;28;20041;-64
2021/03/03 12:10:34;;;;;;;35.92;16.13;;;9.30;99.90;;;;;;5012525;28;20129;-65
2021/03/03 12:13:00;;;;;;;34.00;14.60;;;9.20;99.90;;;;;;5011558;28;20443;-64
2021/03/03 12:15:26;;;;;;;32.38;14.88;;;9.20;99.90;;;;;;5007977;28;20049;-65
2021/03/03 12:17:52;;;;;;;35.28;15.27;;;9.20;99.90;;;;;;5010178;28;20259;-66
2021/03/03 12:20:18;;;;;;;32.00;14.07;;;9.20;99.90;;;;;;5009866;28;20479;-65
2021/03/03 12:22:44;;;;;;;34.50;14.50;;;9.20;99.90;;;;;;5011316;28;20042;-68
2021/03/03 12:25:11;;;;;;;35.05;14.82;;;9.30;99.90;;;;;;5010475;28;20095;-66
2021/03/03 12:27:36;;;;;;;35.75;14.98;;;9.30;99.90;;;;;;5012647;28;20438;-65
2021/03/03 12:30:03;;;;;;;35.67;15.27;;;9.30;99.90;;;;;;5009708;28;20030;-65
2021/03/03 12:32:28;;;;;;;35.70;15.48;;;9.30;99.90;;;;;;5010940;28;20038;-65
2021/03/03 12:34:54;;;;;;;41.72;17.15;;;9.20;99.90;;;;;;5010836;28;20411;-65
2021/03/03 12:37:19;;;;;;;38.05;16.90;;;9.20;99.90;;;;;;5007649;28;20045;-65
2021/03/03 12:39:45;;;;;;;44.50;16.65;;;9.20;99.90;;;;;;5009968;28;20045;-64
2021/03/03 12:42:10;;;;;;;38.70;16.35;;;9.10;99.90;;;;;;5007901;28;20054;-65
2021/03/03 12:44:36;;;;;;;42.97;16.73;;;9.10;99.90;;;;;;5010648;28;20073;-65
2021/03/03 12:47:02;;;;;;;38.60;16.13;;;9.00;99.90;;;;;;5013565;28;20128;-66
2021/03/03 12:49:28;;;;;;;39.95;17.50;;;9.00;99.90;;;;;;5011397;28;20041;-65